sensor_id;sensor_type;location;lat;lon;timestamp;P1;durP1;ratioP1;P2;durP2;ratioP2
59271;SDS011;45043;51.068;7.026;2023-11-19T00:02:42;2.77;;;2.37;;
59271;SDS011;45043;51.068;7.026;2023-11-19T00:05:43;2.90;;;2.10;;
59271;SDS011;45043;51.068;7.026;2023-11-19T00:08:47;2.03;;;1.80;;
59271;SDS011;45043;51.068;7.026;2023-11-19T00:11:48;2.33;;;1.90;;
59271;SDS011;45043;51.068;7.026;2023-11-19T00:14:49;1.80;;;1.70;;
59271;SDS011;45043;51.068;7.026;2023-11-19T00:17:51;1.73;;;1.63;;
59271;SDS011;45043;51.068;7.026;2023-11-19T00:20:52;2.20;;;1.67;;
59271;SDS011;45043;51.068;7.026;2023-11-19T00:23:53;2.10;;;1.60;;
59271;SDS011;45043;51.068;7.026;2023-11-19T00:26:54;1.70;;;1.60;;
59271;SDS011;45043;51.068;7.026;2023-11-19T00:29:55;2.40;;;1.77;;
59271;SDS011;45043;51.068;7.026;2023-11-19T00:32:56;2.27;;;1.70;;
59271;SDS011;45043;51.068;7.026;2023-11-19T00:35:57;1.63;;;1.53;;
59271;SDS011;45043;51.068;7.026;2023-11-19T00:38:58;2.63;;;1.80;;
59271;SDS011;45043;51.068;7.026;2023-11-19T00:41:59;1.87;;;1.47;;
59271;SDS011;45043;51.068;7.026;2023-11-19T00:45:00;3.10;;;1.70;;
59271;SDS011;45043;51.068;7.026;2023-11-19T00:48:02;2.10;;;1.40;;
59271;SDS011;45043;51.068;7.026;2023-11-19T00:51:04;2.27;;;1.67;;
59271;SDS011;45043;51.068;7.026;2023-11-19T00:54:05;2.13;;;1.70;;
59271;SDS011;45043;51.068;7.026;2023-11-19T00:57:06;2.40;;;1.80;;
59271;SDS011;45043;51.068;7.026;2023-11-19T01:00:08;3.73;;;1.90;;
59271;SDS011;45043;51.068;7.026;2023-11-19T01:03:18;2.00;;;1.90;;
59271;SDS011;45043;51.068;7.026;2023-11-19T01:06:31;2.00;;;1.90;;
59271;SDS011;45043;51.068;7.026;2023-11-19T01:09:33;5.00;;;1.77;;
59271;SDS011;45043;51.068;7.026;2023-11-19T01:12:35;2.30;;;2.00;;
59271;SDS011;45043;51.068;7.026;2023-11-19T01:15:39;2.53;;;2.20;;
59271;SDS011;45043;51.068;7.026;2023-11-19T01:18:42;2.87;;;2.30;;
59271;SDS011;45043;51.068;7.026;2023-11-19T01:21:44;2.30;;;2.10;;
59271;SDS011;45043;51.068;7.026;2023-11-19T01:24:45;2.87;;;2.10;;
59271;SDS011;45043;51.068;7.026;2023-11-19T01:27:47;2.93;;;2.03;;
59271;SDS011;45043;51.068;7.026;2023-11-19T01:30:50;2.03;;;1.90;;
59271;SDS011;45043;51.068;7.026;2023-11-19T01:33:52;2.20;;;2.00;;
59271;SDS011;45043;51.068;7.026;2023-11-19T01:36:53;2.83;;;2.63;;
59271;SDS011;45043;51.068;7.026;2023-11-19T01:39:54;2.70;;;2.10;;
59271;SDS011;45043;51.068;7.026;2023-11-19T01:42:55;2.20;;;2.00;;
59271;SDS011;45043;51.068;7.026;2023-11-19T01:45:56;2.70;;;2.50;;
59271;SDS011;45043;51.068;7.026;2023-11-19T01:48:57;3.00;;;2.60;;
59271;SDS011;45043;51.068;7.026;2023-11-19T01:51:58;3.53;;;2.87;;
59271;SDS011;45043;51.068;7.026;2023-11-19T01:54:59;3.13;;;2.83;;
59271;SDS011;45043;51.068;7.026;2023-11-19T01:58:01;4.30;;;2.83;;
59271;SDS011;45043;51.068;7.026;2023-11-19T02:01:22;3.70;;;3.40;;
59271;SDS011;45043;51.068;7.026;2023-11-19T02:04:23;3.70;;;3.33;;
59271;SDS011;45043;51.068;7.026;2023-11-19T02:07:24;3.97;;;3.47;;
59271;SDS011;45043;51.068;7.026;2023-11-19T02:10:26;6.53;;;4.03;;
59271;SDS011;45043;51.068;7.026;2023-11-19T02:13:27;5.80;;;3.50;;
59271;SDS011;45043;51.068;7.026;2023-11-19T02:16:31;3.80;;;3.37;;
59271;SDS011;45043;51.068;7.026;2023-11-19T02:19:33;4.50;;;3.80;;
59271;SDS011;45043;51.068;7.026;2023-11-19T02:22:34;5.07;;;3.27;;
59271;SDS011;45043;51.068;7.026;2023-11-19T02:25:35;3.97;;;3.33;;
59271;SDS011;45043;51.068;7.026;2023-11-19T02:28:38;4.33;;;3.50;;
59271;SDS011;45043;51.068;7.026;2023-11-19T02:31:39;6.00;;;3.67;;
59271;SDS011;45043;51.068;7.026;2023-11-19T02:34:40;3.87;;;3.40;;
59271;SDS011;45043;51.068;7.026;2023-11-19T02:37:42;4.97;;;4.10;;
59271;SDS011;45043;51.068;7.026;2023-11-19T02:40:44;5.67;;;3.87;;
59271;SDS011;45043;51.068;7.026;2023-11-19T02:43:45;4.73;;;4.33;;
59271;SDS011;45043;51.068;7.026;2023-11-19T02:46:46;4.93;;;4.13;;
59271;SDS011;45043;51.068;7.026;2023-11-19T02:49:48;5.63;;;4.40;;
59271;SDS011;45043;51.068;7.026;2023-11-19T02:52:50;5.67;;;4.60;;
59271;SDS011;45043;51.068;7.026;2023-11-19T02:55:53;5.63;;;3.73;;
59271;SDS011;45043;51.068;7.026;2023-11-19T02:58:54;4.27;;;3.87;;
59271;SDS011;45043;51.068;7.026;2023-11-19T03:01:56;5.67;;;3.70;;
59271;SDS011;45043;51.068;7.026;2023-11-19T03:04:57;8.00;;;3.70;;
59271;SDS011;45043;51.068;7.026;2023-11-19T03:07:59;5.97;;;3.50;;
59271;SDS011;45043;51.068;7.026;2023-11-19T03:11:01;6.70;;;3.40;;
59271;SDS011;45043;51.068;7.026;2023-11-19T03:14:02;3.67;;;2.83;;
59271;SDS011;45043;51.068;7.026;2023-11-19T03:17:04;5.80;;;2.70;;
59271;SDS011;45043;51.068;7.026;2023-11-19T03:20:06;4.20;;;2.90;;
59271;SDS011;45043;51.068;7.026;2023-11-19T03:23:11;5.77;;;3.23;;
59271;SDS011;45043;51.068;7.026;2023-11-19T03:26:12;5.93;;;3.23;;
59271;SDS011;45043;51.068;7.026;2023-11-19T03:29:13;7.67;;;3.13;;
59271;SDS011;45043;51.068;7.026;2023-11-19T03:32:14;6.47;;;2.80;;
59271;SDS011;45043;51.068;7.026;2023-11-19T03:35:16;6.50;;;2.83;;
59271;SDS011;45043;51.068;7.026;2023-11-19T03:38:17;8.97;;;3.13;;
59271;SDS011;45043;51.068;7.026;2023-11-19T03:41:18;6.60;;;2.93;;
59271;SDS011;45043;51.068;7.026;2023-11-19T03:44:20;11.83;;;3.87;;
59271;SDS011;45043;51.068;7.026;2023-11-19T03:47:22;9.93;;;3.07;;
59271;SDS011;45043;51.068;7.026;2023-11-19T03:50:23;9.60;;;3.33;;
59271;SDS011;45043;51.068;7.026;2023-11-19T03:53:25;9.23;;;3.63;;
59271;SDS011;45043;51.068;7.026;2023-11-19T03:56:26;11.47;;;3.03;;
59271;SDS011;45043;51.068;7.026;2023-11-19T03:59:28;11.60;;;3.40;;
59271;SDS011;45043;51.068;7.026;2023-11-19T04:02:29;16.17;;;3.23;;
59271;SDS011;45043;51.068;7.026;2023-11-19T04:05:30;9.50;;;3.63;;
59271;SDS011;45043;51.068;7.026;2023-11-19T04:08:31;12.37;;;3.40;;
59271;SDS011;45043;51.068;7.026;2023-11-19T04:11:33;17.90;;;3.80;;
59271;SDS011;45043;51.068;7.026;2023-11-19T04:14:34;13.47;;;3.80;;
59271;SDS011;45043;51.068;7.026;2023-11-19T04:17:36;14.27;;;3.53;;
59271;SDS011;45043;51.068;7.026;2023-11-19T04:20:40;13.07;;;3.97;;
59271;SDS011;45043;51.068;7.026;2023-11-19T04:23:42;14.73;;;3.63;;
59271;SDS011;45043;51.068;7.026;2023-11-19T04:26:44;13.70;;;3.47;;
59271;SDS011;45043;51.068;7.026;2023-11-19T04:29:46;15.53;;;3.50;;
59271;SDS011;45043;51.068;7.026;2023-11-19T04:32:47;11.03;;;3.40;;
59271;SDS011;45043;51.068;7.026;2023-11-19T04:35:50;10.67;;;3.50;;
59271;SDS011;45043;51.068;7.026;2023-11-19T04:38:51;12.27;;;3.70;;
59271;SDS011;45043;51.068;7.026;2023-11-19T04:41:52;14.40;;;3.40;;
59271;SDS011;45043;51.068;7.026;2023-11-19T04:44:53;12.60;;;3.67;;
59271;SDS011;45043;51.068;7.026;2023-11-19T04:47:54;13.53;;;3.13;;
59271;SDS011;45043;51.068;7.026;2023-11-19T04:50:55;18.13;;;3.73;;
59271;SDS011;45043;51.068;7.026;2023-11-19T04:53:57;17.60;;;3.90;;
59271;SDS011;45043;51.068;7.026;2023-11-19T04:56:58;10.70;;;3.53;;
59271;SDS011;45043;51.068;7.026;2023-11-19T04:59:59;15.43;;;3.60;;
59271;SDS011;45043;51.068;7.026;2023-11-19T05:03:00;13.47;;;4.00;;
59271;SDS011;45043;51.068;7.026;2023-11-19T05:06:01;18.77;;;4.33;;
59271;SDS011;45043;51.068;7.026;2023-11-19T05:09:03;17.87;;;3.50;;
59271;SDS011;45043;51.068;7.026;2023-11-19T05:12:06;17.80;;;4.00;;
59271;SDS011;45043;51.068;7.026;2023-11-19T05:15:10;15.60;;;4.07;;
59271;SDS011;45043;51.068;7.026;2023-11-19T05:18:12;20.40;;;4.33;;
59271;SDS011;45043;51.068;7.026;2023-11-19T05:21:13;17.67;;;3.90;;
59271;SDS011;45043;51.068;7.026;2023-11-19T05:24:14;18.63;;;4.27;;
59271;SDS011;45043;51.068;7.026;2023-11-19T05:27:15;20.93;;;4.27;;
59271;SDS011;45043;51.068;7.026;2023-11-19T05:30:16;15.80;;;4.43;;
59271;SDS011;45043;51.068;7.026;2023-11-19T05:33:17;14.67;;;4.23;;
59271;SDS011;45043;51.068;7.026;2023-11-19T05:36:18;17.73;;;4.10;;
59271;SDS011;45043;51.068;7.026;2023-11-19T05:39:19;14.60;;;3.90;;
59271;SDS011;45043;51.068;7.026;2023-11-19T05:42:20;12.93;;;3.30;;
59271;SDS011;45043;51.068;7.026;2023-11-19T05:45:21;17.90;;;4.10;;
59271;SDS011;45043;51.068;7.026;2023-11-19T05:48:22;13.17;;;3.80;;
59271;SDS011;45043;51.068;7.026;2023-11-19T05:51:23;15.10;;;3.73;;
59271;SDS011;45043;51.068;7.026;2023-11-19T05:54:25;17.23;;;4.87;;
59271;SDS011;45043;51.068;7.026;2023-11-19T05:57:26;17.00;;;3.70;;
59271;SDS011;45043;51.068;7.026;2023-11-19T06:00:29;18.13;;;4.13;;
59271;SDS011;45043;51.068;7.026;2023-11-19T06:03:30;13.70;;;3.90;;
59271;SDS011;45043;51.068;7.026;2023-11-19T06:06:31;16.87;;;4.43;;
59271;SDS011;45043;51.068;7.026;2023-11-19T06:09:32;22.47;;;4.40;;
59271;SDS011;45043;51.068;7.026;2023-11-19T06:12:34;18.43;;;4.27;;
59271;SDS011;45043;51.068;7.026;2023-11-19T06:15:38;17.67;;;4.33;;
59271;SDS011;45043;51.068;7.026;2023-11-19T06:18:39;19.43;;;4.73;;
59271;SDS011;45043;51.068;7.026;2023-11-19T06:21:41;17.77;;;4.63;;
59271;SDS011;45043;51.068;7.026;2023-11-19T06:24:43;21.10;;;4.67;;
59271;SDS011;45043;51.068;7.026;2023-11-19T06:27:44;19.17;;;4.63;;
59271;SDS011;45043;51.068;7.026;2023-11-19T06:30:45;17.43;;;4.27;;
59271;SDS011;45043;51.068;7.026;2023-11-19T06:33:46;20.63;;;4.57;;
59271;SDS011;45043;51.068;7.026;2023-11-19T06:36:49;20.40;;;4.63;;
59271;SDS011;45043;51.068;7.026;2023-11-19T06:39:50;19.20;;;5.43;;
59271;SDS011;45043;51.068;7.026;2023-11-19T06:42:51;15.10;;;4.40;;
59271;SDS011;45043;51.068;7.026;2023-11-19T06:45:56;22.30;;;4.80;;
59271;SDS011;45043;51.068;7.026;2023-11-19T06:48:57;17.57;;;3.73;;
59271;SDS011;45043;51.068;7.026;2023-11-19T06:51:58;17.27;;;4.00;;
59271;SDS011;45043;51.068;7.026;2023-11-19T06:54:59;16.07;;;4.33;;
59271;SDS011;45043;51.068;7.026;2023-11-19T06:58:01;23.07;;;4.57;;
59271;SDS011;45043;51.068;7.026;2023-11-19T07:01:06;14.07;;;3.73;;
59271;SDS011;45043;51.068;7.026;2023-11-19T07:04:08;24.13;;;5.13;;
59271;SDS011;45043;51.068;7.026;2023-11-19T07:07:12;19.03;;;4.67;;
59271;SDS011;45043;51.068;7.026;2023-11-19T07:10:15;17.10;;;4.30;;
59271;SDS011;45043;51.068;7.026;2023-11-19T07:13:16;16.67;;;4.20;;
59271;SDS011;45043;51.068;7.026;2023-11-19T07:16:17;14.00;;;3.83;;
59271;SDS011;45043;51.068;7.026;2023-11-19T07:19:18;19.70;;;4.97;;
59271;SDS011;45043;51.068;7.026;2023-11-19T07:22:19;13.33;;;4.07;;
59271;SDS011;45043;51.068;7.026;2023-11-19T07:25:21;19.33;;;4.67;;
59271;SDS011;45043;51.068;7.026;2023-11-19T07:28:22;16.87;;;4.33;;
59271;SDS011;45043;51.068;7.026;2023-11-19T07:31:23;16.97;;;4.57;;
59271;SDS011;45043;51.068;7.026;2023-11-19T07:34:24;18.70;;;4.17;;
59271;SDS011;45043;51.068;7.026;2023-11-19T07:37:28;15.60;;;4.37;;
59271;SDS011;45043;51.068;7.026;2023-11-19T07:40:29;21.57;;;4.93;;
59271;SDS011;45043;51.068;7.026;2023-11-19T07:43:30;19.47;;;4.83;;
59271;SDS011;45043;51.068;7.026;2023-11-19T07:46:31;20.47;;;5.10;;
59271;SDS011;45043;51.068;7.026;2023-11-19T07:49:33;16.00;;;4.07;;
59271;SDS011;45043;51.068;7.026;2023-11-19T07:52:34;22.63;;;4.60;;
59271;SDS011;45043;51.068;7.026;2023-11-19T07:55:36;20.47;;;4.63;;
59271;SDS011;45043;51.068;7.026;2023-11-19T07:58:36;14.90;;;4.20;;
59271;SDS011;45043;51.068;7.026;2023-11-19T08:01:37;18.03;;;4.63;;
59271;SDS011;45043;51.068;7.026;2023-11-19T08:04:39;21.80;;;4.43;;
59271;SDS011;45043;51.068;7.026;2023-11-19T08:07:45;16.73;;;4.40;;
59271;SDS011;45043;51.068;7.026;2023-11-19T08:10:46;17.50;;;4.60;;
59271;SDS011;45043;51.068;7.026;2023-11-19T08:13:47;16.53;;;4.20;;
59271;SDS011;45043;51.068;7.026;2023-11-19T08:16:48;16.50;;;4.43;;
59271;SDS011;45043;51.068;7.026;2023-11-19T08:19:50;16.90;;;4.60;;
59271;SDS011;45043;51.068;7.026;2023-11-19T08:22:51;18.43;;;4.47;;
59271;SDS011;45043;51.068;7.026;2023-11-19T08:25:52;15.57;;;4.40;;
59271;SDS011;45043;51.068;7.026;2023-11-19T08:28:53;18.87;;;4.90;;
59271;SDS011;45043;51.068;7.026;2023-11-19T08:31:54;21.27;;;4.47;;
59271;SDS011;45043;51.068;7.026;2023-11-19T08:34:55;20.07;;;4.73;;
59271;SDS011;45043;51.068;7.026;2023-11-19T08:37:56;21.43;;;4.57;;
59271;SDS011;45043;51.068;7.026;2023-11-19T08:40:58;18.67;;;4.67;;
59271;SDS011;45043;51.068;7.026;2023-11-19T08:44:01;19.97;;;4.60;;
59271;SDS011;45043;51.068;7.026;2023-11-19T08:47:02;17.63;;;4.90;;
59271;SDS011;45043;51.068;7.026;2023-11-19T08:50:02;19.23;;;4.67;;
59271;SDS011;45043;51.068;7.026;2023-11-19T08:53:04;23.27;;;5.13;;
59271;SDS011;45043;51.068;7.026;2023-11-19T08:56:06;18.63;;;4.90;;
59271;SDS011;45043;51.068;7.026;2023-11-19T08:59:08;20.57;;;4.80;;
59271;SDS011;45043;51.068;7.026;2023-11-19T09:02:09;18.67;;;4.90;;
59271;SDS011;45043;51.068;7.026;2023-11-19T09:05:10;22.50;;;4.97;;
59271;SDS011;45043;51.068;7.026;2023-11-19T09:08:11;20.83;;;4.20;;
59271;SDS011;45043;51.068;7.026;2023-11-19T09:11:12;20.23;;;5.37;;
59271;SDS011;45043;51.068;7.026;2023-11-19T09:14:13;22.13;;;5.20;;
59271;SDS011;45043;51.068;7.026;2023-11-19T09:17:14;21.10;;;5.47;;
59271;SDS011;45043;51.068;7.026;2023-11-19T09:20:15;20.37;;;5.40;;
59271;SDS011;45043;51.068;7.026;2023-11-19T09:23:16;20.80;;;4.80;;
59271;SDS011;45043;51.068;7.026;2023-11-19T09:26:16;19.63;;;4.87;;
59271;SDS011;45043;51.068;7.026;2023-11-19T09:29:17;18.37;;;4.43;;
59271;SDS011;45043;51.068;7.026;2023-11-19T09:32:18;20.93;;;4.83;;
59271;SDS011;45043;51.068;7.026;2023-11-19T09:35:19;20.67;;;5.40;;
59271;SDS011;45043;51.068;7.026;2023-11-19T09:38:20;20.37;;;5.63;;
59271;SDS011;45043;51.068;7.026;2023-11-19T09:41:21;22.63;;;4.50;;
59271;SDS011;45043;51.068;7.026;2023-11-19T09:44:23;22.40;;;5.03;;
59271;SDS011;45043;51.068;7.026;2023-11-19T09:47:24;24.37;;;5.50;;
59271;SDS011;45043;51.068;7.026;2023-11-19T09:50:28;25.17;;;4.57;;
59271;SDS011;45043;51.068;7.026;2023-11-19T09:53:29;16.37;;;4.30;;
59271;SDS011;45043;51.068;7.026;2023-11-19T09:56:31;19.50;;;4.90;;
59271;SDS011;45043;51.068;7.026;2023-11-19T09:59:34;22.33;;;5.30;;
59271;SDS011;45043;51.068;7.026;2023-11-19T10:02:35;20.53;;;4.87;;
59271;SDS011;45043;51.068;7.026;2023-11-19T10:05:38;21.93;;;4.80;;
59271;SDS011;45043;51.068;7.026;2023-11-19T10:08:39;22.67;;;4.83;;
59271;SDS011;45043;51.068;7.026;2023-11-19T10:11:42;23.07;;;5.57;;
59271;SDS011;45043;51.068;7.026;2023-11-19T10:14:42;27.37;;;5.10;;
59271;SDS011;45043;51.068;7.026;2023-11-19T10:17:44;21.43;;;5.13;;
59271;SDS011;45043;51.068;7.026;2023-11-19T10:20:45;20.37;;;5.40;;
59271;SDS011;45043;51.068;7.026;2023-11-19T10:23:49;24.07;;;4.93;;
59271;SDS011;45043;51.068;7.026;2023-11-19T10:26:56;21.73;;;5.50;;
59271;SDS011;45043;51.068;7.026;2023-11-19T10:30:00;27.70;;;5.53;;
59271;SDS011;45043;51.068;7.026;2023-11-19T10:33:06;17.97;;;4.43;;
59271;SDS011;45043;51.068;7.026;2023-11-19T10:36:15;21.07;;;5.17;;
59271;SDS011;45043;51.068;7.026;2023-11-19T10:39:18;21.03;;;5.37;;
59271;SDS011;45043;51.068;7.026;2023-11-19T10:42:19;22.87;;;5.47;;
59271;SDS011;45043;51.068;7.026;2023-11-19T10:45:22;22.10;;;5.27;;
59271;SDS011;45043;51.068;7.026;2023-11-19T10:48:26;20.50;;;4.93;;
59271;SDS011;45043;51.068;7.026;2023-11-19T10:51:27;21.30;;;4.90;;
59271;SDS011;45043;51.068;7.026;2023-11-19T10:54:29;23.03;;;5.10;;
59271;SDS011;45043;51.068;7.026;2023-11-19T10:57:32;19.73;;;4.50;;
59271;SDS011;45043;51.068;7.026;2023-11-19T11:03:48;20.33;;;4.87;;
59271;SDS011;45043;51.068;7.026;2023-11-19T11:06:54;18.37;;;5.07;;
59271;SDS011;45043;51.068;7.026;2023-11-19T11:09:59;19.67;;;4.53;;
59271;SDS011;45043;51.068;7.026;2023-11-19T11:13:03;16.53;;;4.30;;
59271;SDS011;45043;51.068;7.026;2023-11-19T11:16:04;15.27;;;4.50;;
59271;SDS011;45043;51.068;7.026;2023-11-19T11:19:09;19.37;;;4.30;;
59271;SDS011;45043;51.068;7.026;2023-11-19T11:22:13;18.37;;;4.57;;
59271;SDS011;45043;51.068;7.026;2023-11-19T11:25:26;17.60;;;4.67;;
59271;SDS011;45043;51.068;7.026;2023-11-19T11:29:01;16.57;;;4.30;;
59271;SDS011;45043;51.068;7.026;2023-11-19T11:38:13;17.87;;;4.10;;
59271;SDS011;45043;51.068;7.026;2023-11-19T11:41:20;14.17;;;3.73;;
59271;SDS011;45043;51.068;7.026;2023-11-19T11:48:05;14.40;;;4.40;;
59271;SDS011;45043;51.068;7.026;2023-11-19T11:51:10;20.70;;;4.50;;
59271;SDS011;45043;51.068;7.026;2023-11-19T11:57:19;14.40;;;4.23;;
59271;SDS011;45043;51.068;7.026;2023-11-19T12:00:21;15.47;;;4.20;;
59271;SDS011;45043;51.068;7.026;2023-11-19T12:03:32;14.87;;;3.87;;
59271;SDS011;45043;51.068;7.026;2023-11-19T12:06:34;11.57;;;3.37;;
59271;SDS011;45043;51.068;7.026;2023-11-19T12:09:40;9.80;;;3.10;;
59271;SDS011;45043;51.068;7.026;2023-11-19T12:12:48;13.67;;;3.67;;
59271;SDS011;45043;51.068;7.026;2023-11-19T12:19:02;15.17;;;4.10;;
59271;SDS011;45043;51.068;7.026;2023-11-19T12:22:10;12.67;;;3.37;;
59271;SDS011;45043;51.068;7.026;2023-11-19T12:25:12;20.17;;;4.23;;
59271;SDS011;45043;51.068;7.026;2023-11-19T12:28:16;18.67;;;4.00;;
59271;SDS011;45043;51.068;7.026;2023-11-19T12:31:17;14.70;;;4.10;;
59271;SDS011;45043;51.068;7.026;2023-11-19T12:34:19;12.70;;;3.67;;
59271;SDS011;45043;51.068;7.026;2023-11-19T12:37:20;14.27;;;4.00;;
59271;SDS011;45043;51.068;7.026;2023-11-19T12:40:22;14.30;;;4.00;;
59271;SDS011;45043;51.068;7.026;2023-11-19T12:43:26;17.17;;;4.70;;
59271;SDS011;45043;51.068;7.026;2023-11-19T12:46:26;14.87;;;4.10;;
59271;SDS011;45043;51.068;7.026;2023-11-19T12:49:28;17.97;;;4.40;;
59271;SDS011;45043;51.068;7.026;2023-11-19T12:52:29;19.47;;;4.00;;
59271;SDS011;45043;51.068;7.026;2023-11-19T12:55:31;16.27;;;3.93;;
59271;SDS011;45043;51.068;7.026;2023-11-19T12:58:34;20.17;;;4.40;;
59271;SDS011;45043;51.068;7.026;2023-11-19T13:01:36;16.80;;;4.07;;
59271;SDS011;45043;51.068;7.026;2023-11-19T13:04:39;15.97;;;3.77;;
59271;SDS011;45043;51.068;7.026;2023-11-19T13:07:41;14.07;;;3.43;;
59271;SDS011;45043;51.068;7.026;2023-11-19T13:11:00;17.57;;;4.00;;
59271;SDS011;45043;51.068;7.026;2023-11-19T13:14:04;16.03;;;4.10;;
59271;SDS011;45043;51.068;7.026;2023-11-19T13:17:06;14.47;;;4.37;;
59271;SDS011;45043;51.068;7.026;2023-11-19T13:20:07;9.73;;;3.40;;
59271;SDS011;45043;51.068;7.026;2023-11-19T13:23:08;10.97;;;3.83;;
59271;SDS011;45043;51.068;7.026;2023-11-19T13:26:11;10.80;;;3.17;;
59271;SDS011;45043;51.068;7.026;2023-11-19T13:29:12;14.03;;;3.60;;
59271;SDS011;45043;51.068;7.026;2023-11-19T13:32:13;16.30;;;4.00;;
59271;SDS011;45043;51.068;7.026;2023-11-19T13:35:15;17.37;;;4.13;;
59271;SDS011;45043;51.068;7.026;2023-11-19T13:38:17;13.63;;;3.57;;
59271;SDS011;45043;51.068;7.026;2023-11-19T13:41:19;17.47;;;3.93;;
59271;SDS011;45043;51.068;7.026;2023-11-19T13:44:21;15.37;;;4.20;;
59271;SDS011;45043;51.068;7.026;2023-11-19T13:47:23;15.13;;;3.70;;
59271;SDS011;45043;51.068;7.026;2023-11-19T13:50:24;15.97;;;4.40;;
59271;SDS011;45043;51.068;7.026;2023-11-19T13:53:25;15.13;;;3.93;;
59271;SDS011;45043;51.068;7.026;2023-11-19T13:56:26;19.07;;;4.10;;
59271;SDS011;45043;51.068;7.026;2023-11-19T13:59:31;15.33;;;4.07;;
59271;SDS011;45043;51.068;7.026;2023-11-19T14:02:33;15.50;;;4.53;;
59271;SDS011;45043;51.068;7.026;2023-11-19T14:05:34;13.27;;;4.23;;
59271;SDS011;45043;51.068;7.026;2023-11-19T14:08:34;17.47;;;4.07;;
59271;SDS011;45043;51.068;7.026;2023-11-19T14:11:35;16.53;;;3.87;;
59271;SDS011;45043;51.068;7.026;2023-11-19T14:14:36;17.37;;;4.50;;
59271;SDS011;45043;51.068;7.026;2023-11-19T14:17:37;18.47;;;4.67;;
59271;SDS011;45043;51.068;7.026;2023-11-19T14:20:58;15.37;;;3.97;;
59271;SDS011;45043;51.068;7.026;2023-11-19T14:24:00;14.57;;;4.30;;
59271;SDS011;45043;51.068;7.026;2023-11-19T14:27:01;18.83;;;4.40;;
59271;SDS011;45043;51.068;7.026;2023-11-19T14:30:04;17.27;;;4.47;;
59271;SDS011;45043;51.068;7.026;2023-11-19T14:33:07;14.73;;;4.17;;
59271;SDS011;45043;51.068;7.026;2023-11-19T14:36:08;16.33;;;3.90;;
59271;SDS011;45043;51.068;7.026;2023-11-19T14:39:09;17.77;;;4.07;;
59271;SDS011;45043;51.068;7.026;2023-11-19T14:42:09;15.60;;;4.03;;
59271;SDS011;45043;51.068;7.026;2023-11-19T14:45:12;15.90;;;4.37;;
59271;SDS011;45043;51.068;7.026;2023-11-19T14:48:12;15.60;;;4.03;;
59271;SDS011;45043;51.068;7.026;2023-11-19T14:51:14;13.73;;;4.03;;
59271;SDS011;45043;51.068;7.026;2023-11-19T14:54:16;11.57;;;3.83;;
59271;SDS011;45043;51.068;7.026;2023-11-19T14:57:17;11.43;;;3.27;;
59271;SDS011;45043;51.068;7.026;2023-11-19T15:00:18;10.50;;;3.43;;
59271;SDS011;45043;51.068;7.026;2023-11-19T15:03:19;11.30;;;3.37;;
59271;SDS011;45043;51.068;7.026;2023-11-19T15:06:25;13.57;;;3.50;;
59271;SDS011;45043;51.068;7.026;2023-11-19T15:09:30;11.17;;;3.00;;
59271;SDS011;45043;51.068;7.026;2023-11-19T15:12:33;13.13;;;3.40;;
59271;SDS011;45043;51.068;7.026;2023-11-19T15:15:36;12.00;;;3.40;;
59271;SDS011;45043;51.068;7.026;2023-11-19T15:18:37;13.87;;;3.77;;
59271;SDS011;45043;51.068;7.026;2023-11-19T15:21:38;16.37;;;3.83;;
59271;SDS011;45043;51.068;7.026;2023-11-19T15:24:39;14.97;;;3.70;;
59271;SDS011;45043;51.068;7.026;2023-11-19T15:27:42;13.13;;;3.97;;
59271;SDS011;45043;51.068;7.026;2023-11-19T15:30:43;14.00;;;3.53;;
59271;SDS011;45043;51.068;7.026;2023-11-19T15:33:44;15.00;;;3.90;;
59271;SDS011;45043;51.068;7.026;2023-11-19T15:36:47;12.43;;;3.83;;
59271;SDS011;45043;51.068;7.026;2023-11-19T15:39:48;11.87;;;3.83;;
59271;SDS011;45043;51.068;7.026;2023-11-19T15:42:51;14.63;;;3.57;;
59271;SDS011;45043;51.068;7.026;2023-11-19T15:45:54;17.97;;;4.20;;
59271;SDS011;45043;51.068;7.026;2023-11-19T15:48:55;13.73;;;3.77;;
59271;SDS011;45043;51.068;7.026;2023-11-19T15:51:56;16.27;;;3.87;;
59271;SDS011;45043;51.068;7.026;2023-11-19T15:54:57;13.83;;;3.70;;
59271;SDS011;45043;51.068;7.026;2023-11-19T15:57:58;13.97;;;4.03;;
59271;SDS011;45043;51.068;7.026;2023-11-19T16:00:59;18.13;;;4.00;;
59271;SDS011;45043;51.068;7.026;2023-11-19T16:04:01;14.27;;;3.53;;
59271;SDS011;45043;51.068;7.026;2023-11-19T16:07:03;16.37;;;4.33;;
59271;SDS011;45043;51.068;7.026;2023-11-19T16:10:04;19.93;;;4.10;;
59271;SDS011;45043;51.068;7.026;2023-11-19T16:13:06;17.30;;;4.10;;
59271;SDS011;45043;51.068;7.026;2023-11-19T16:16:07;18.07;;;4.00;;
59271;SDS011;45043;51.068;7.026;2023-11-19T16:19:08;17.03;;;4.17;;
59271;SDS011;45043;51.068;7.026;2023-11-19T16:22:09;12.83;;;3.97;;
59271;SDS011;45043;51.068;7.026;2023-11-19T16:25:11;15.40;;;4.07;;
59271;SDS011;45043;51.068;7.026;2023-11-19T16:28:15;16.77;;;4.07;;
59271;SDS011;45043;51.068;7.026;2023-11-19T16:31:17;14.60;;;3.90;;
59271;SDS011;45043;51.068;7.026;2023-11-19T16:34:18;17.23;;;4.67;;
59271;SDS011;45043;51.068;7.026;2023-11-19T16:37:19;17.87;;;4.60;;
59271;SDS011;45043;51.068;7.026;2023-11-19T16:40:21;14.87;;;4.33;;
59271;SDS011;45043;51.068;7.026;2023-11-19T16:43:23;16.93;;;3.93;;
59271;SDS011;45043;51.068;7.026;2023-11-19T16:46:28;18.03;;;4.27;;
59271;SDS011;45043;51.068;7.026;2023-11-19T16:49:31;14.57;;;3.80;;
59271;SDS011;45043;51.068;7.026;2023-11-19T16:52:33;16.70;;;4.10;;
59271;SDS011;45043;51.068;7.026;2023-11-19T16:55:33;17.23;;;4.13;;
59271;SDS011;45043;51.068;7.026;2023-11-19T16:58:36;15.00;;;4.07;;
59271;SDS011;45043;51.068;7.026;2023-11-19T17:01:37;18.27;;;4.37;;
59271;SDS011;45043;51.068;7.026;2023-11-19T17:04:38;18.47;;;4.60;;
59271;SDS011;45043;51.068;7.026;2023-11-19T17:07:39;15.80;;;3.70;;
59271;SDS011;45043;51.068;7.026;2023-11-19T17:10:40;17.07;;;4.40;;
59271;SDS011;45043;51.068;7.026;2023-11-19T17:13:42;12.73;;;4.00;;
59271;SDS011;45043;51.068;7.026;2023-11-19T17:16:43;15.23;;;4.37;;
59271;SDS011;45043;51.068;7.026;2023-11-19T17:19:45;18.30;;;4.20;;
59271;SDS011;45043;51.068;7.026;2023-11-19T17:22:45;13.57;;;3.53;;
59271;SDS011;45043;51.068;7.026;2023-11-19T17:25:46;17.93;;;4.10;;
59271;SDS011;45043;51.068;7.026;2023-11-19T17:28:48;16.83;;;4.03;;
59271;SDS011;45043;51.068;7.026;2023-11-19T17:31:49;14.10;;;4.40;;
59271;SDS011;45043;51.068;7.026;2023-11-19T17:34:50;14.07;;;4.20;;
59271;SDS011;45043;51.068;7.026;2023-11-19T17:37:51;15.60;;;3.60;;
59271;SDS011;45043;51.068;7.026;2023-11-19T17:40:52;27.17;;;4.37;;
59271;SDS011;45043;51.068;7.026;2023-11-19T17:43:57;16.33;;;3.60;;
59271;SDS011;45043;51.068;7.026;2023-11-19T17:46:58;18.90;;;4.63;;
59271;SDS011;45043;51.068;7.026;2023-11-19T17:49:59;12.73;;;3.53;;
59271;SDS011;45043;51.068;7.026;2023-11-19T17:53:01;14.40;;;4.23;;
59271;SDS011;45043;51.068;7.026;2023-11-19T17:56:01;17.47;;;4.17;;
59271;SDS011;45043;51.068;7.026;2023-11-19T17:59:03;19.60;;;4.30;;
59271;SDS011;45043;51.068;7.026;2023-11-19T18:02:04;13.17;;;3.70;;
59271;SDS011;45043;51.068;7.026;2023-11-19T18:05:05;13.77;;;3.80;;
59271;SDS011;45043;51.068;7.026;2023-11-19T18:08:07;20.97;;;4.50;;
59271;SDS011;45043;51.068;7.026;2023-11-19T18:11:12;19.27;;;4.27;;
59271;SDS011;45043;51.068;7.026;2023-11-19T18:14:14;20.17;;;4.37;;
59271;SDS011;45043;51.068;7.026;2023-11-19T18:17:15;13.87;;;3.83;;
59271;SDS011;45043;51.068;7.026;2023-11-19T18:20:16;13.53;;;3.93;;
59271;SDS011;45043;51.068;7.026;2023-11-19T18:23:17;15.70;;;4.27;;
59271;SDS011;45043;51.068;7.026;2023-11-19T18:26:18;15.93;;;4.07;;